Pierce City, Missouri
Current Conditions -  °F | °C
As of 7:35 PM on Friday 24 Oct 2014 (Local Time) from KHFJ Reporting Station
Clear Clear  
Wind Chill: 64°   Ceiling: Unl
Heat Index: 64°   Visibility: 10mi
Dew Point: 61°   Wind: 7mph
Humidity: 88%   Direction: 190°S
Pressure: 30.05"   Gusts: NA
Location:  36.95°N, 94°W
Report Text: KHFJ 250035Z AUTO 19006KT 10SM CLR 18/16 A3005 RMK AO2
Loading
Personal Weather Stations






























Interactive Weather Map New forecast layout! Learn more

10-Day Weather Forecast

Advertisements
Track Severe Weather on mobile